sensor_id;sensor_type;location;lat;lon;timestamp;temperature;humidity
4962;DHT22;2496;52.468;13.342;2024-01-30T00:02:03;4.10;99.90
4962;DHT22;2496;52.468;13.342;2024-01-30T00:04:30;4.10;99.90
4962;DHT22;2496;52.468;13.342;2024-01-30T00:06:57;4.10;99.90
4962;DHT22;2496;52.468;13.342;2024-01-30T00:09:24;4.00;99.90
4962;DHT22;2496;52.468;13.342;2024-01-30T00:11:53;4.00;99.90
4962;DHT22;2496;52.468;13.342;2024-01-30T00:14:20;4.00;99.90
4962;DHT22;2496;52.468;13.342;2024-01-30T00:16:47;4.00;99.90
4962;DHT22;2496;52.468;13.342;2024-01-30T00:19:14;4.00;99.90
4962;DHT22;2496;52.468;13.342;2024-01-30T00:21:41;3.90;99.90
4962;DHT22;2496;52.468;13.342;2024-01-30T00:24:08;4.00;99.90
4962;DHT22;2496;52.468;13.342;2024-01-30T00:26:35;3.90;99.90
4962;DHT22;2496;52.468;13.342;2024-01-30T00:29:03;3.90;99.90
4962;DHT22;2496;52.468;13.342;2024-01-30T00:31:30;3.90;99.90
4962;DHT22;2496;52.468;13.342;2024-01-30T00:33:57;3.90;99.90
4962;DHT22;2496;52.468;13.342;2024-01-30T00:36:24;3.90;99.90
4962;DHT22;2496;52.468;13.342;2024-01-30T00:38:51;3.90;99.90
4962;DHT22;2496;52.468;13.342;2024-01-30T00:41:18;3.80;99.90
4962;DHT22;2496;52.468;13.342;2024-01-30T00:43:45;3.80;99.90
4962;DHT22;2496;52.468;13.342;2024-01-30T00:46:14;3.80;99.90
4962;DHT22;2496;52.468;13.342;2024-01-30T00:48:41;3.80;99.90
4962;DHT22;2496;52.468;13.342;2024-01-30T00:51:08;3.80;99.90
4962;DHT22;2496;52.468;13.342;2024-01-30T00:53:35;3.70;99.90
4962;DHT22;2496;52.468;13.342;2024-01-30T00:56:02;3.70;99.90
4962;DHT22;2496;52.468;13.342;2024-01-30T00:58:29;3.70;99.90
4962;DHT22;2496;52.468;13.342;2024-01-30T01:00:56;3.70;99.90
4962;DHT22;2496;52.468;13.342;2024-01-30T01:03:24;3.70;99.90
4962;DHT22;2496;52.468;13.342;2024-01-30T01:05:51;3.70;99.90
4962;DHT22;2496;52.468;13.342;2024-01-30T01:08:18;3.70;99.90
4962;DHT22;2496;52.468;13.342;2024-01-30T01:10:45;3.70;99.90
4962;DHT22;2496;52.468;13.342;2024-01-30T01:13:13;3.70;99.90
4962;DHT22;2496;52.468;13.342;2024-01-30T01:15:40;3.70;99.90
4962;DHT22;2496;52.468;13.342;2024-01-30T01:18:07;3.70;99.90
4962;DHT22;2496;52.468;13.342;2024-01-30T01:20:35;3.70;99.90
4962;DHT22;2496;52.468;13.342;2024-01-30T01:23:02;3.70;99.90
4962;DHT22;2496;52.468;13.342;2024-01-30T01:25:29;3.60;99.90
4962;DHT22;2496;52.468;13.342;2024-01-30T01:27:56;3.70;99.90
4962;DHT22;2496;52.468;13.342;2024-01-30T01:30:23;3.70;99.90
4962;DHT22;2496;52.468;13.342;2024-01-30T01:32:51;3.70;99.90
4962;DHT22;2496;52.468;13.342;2024-01-30T01:35:22;3.70;99.90
4962;DHT22;2496;52.468;13.342;2024-01-30T01:37:51;3.70;99.90
4962;DHT22;2496;52.468;13.342;2024-01-30T01:40:22;3.70;99.90
4962;DHT22;2496;52.468;13.342;2024-01-30T01:42:50;3.70;99.90
4962;DHT22;2496;52.468;13.342;2024-01-30T01:45:17;3.70;99.90
4962;DHT22;2496;52.468;13.342;2024-01-30T01:47:46;3.70;99.90
4962;DHT22;2496;52.468;13.342;2024-01-30T01:50:15;3.70;99.90
4962;DHT22;2496;52.468;13.342;2024-01-30T01:52:45;3.60;99.90
4962;DHT22;2496;52.468;13.342;2024-01-30T01:55:15;3.60;99.90
4962;DHT22;2496;52.468;13.342;2024-01-30T01:57:44;3.60;99.90
4962;DHT22;2496;52.468;13.342;2024-01-30T02:00:12;3.60;99.90
4962;DHT22;2496;52.468;13.342;2024-01-30T02:02:41;3.60;99.90
4962;DHT22;2496;52.468;13.342;2024-01-30T02:05:10;3.60;99.90
4962;DHT22;2496;52.468;13.342;2024-01-30T02:07:37;3.60;99.90
4962;DHT22;2496;52.468;13.342;2024-01-30T02:10:07;3.60;99.90
4962;DHT22;2496;52.468;13.342;2024-01-30T02:12:35;3.50;99.90
4962;DHT22;2496;52.468;13.342;2024-01-30T02:15:03;3.50;99.90
4962;DHT22;2496;52.468;13.342;2024-01-30T02:17:30;3.50;99.90
4962;DHT22;2496;52.468;13.342;2024-01-30T02:19:57;3.50;99.90
4962;DHT22;2496;52.468;13.342;2024-01-30T02:22:26;3.50;99.90
4962;DHT22;2496;52.468;13.342;2024-01-30T02:24:53;3.50;99.90
4962;DHT22;2496;52.468;13.342;2024-01-30T02:27:20;3.50;99.90
4962;DHT22;2496;52.468;13.342;2024-01-30T02:29:47;3.50;99.90
4962;DHT22;2496;52.468;13.342;2024-01-30T02:32:14;3.50;99.90
4962;DHT22;2496;52.468;13.342;2024-01-30T02:34:41;3.50;99.90
4962;DHT22;2496;52.468;13.342;2024-01-30T02:37:08;3.50;99.90
4962;DHT22;2496;52.468;13.342;2024-01-30T02:39:37;3.50;99.90
4962;DHT22;2496;52.468;13.342;2024-01-30T02:42:04;3.50;99.90
4962;DHT22;2496;52.468;13.342;2024-01-30T02:44:31;3.50;99.90
4962;DHT22;2496;52.468;13.342;2024-01-30T02:46:58;3.50;99.90
4962;DHT22;2496;52.468;13.342;2024-01-30T02:49:25;3.50;99.90
4962;DHT22;2496;52.468;13.342;2024-01-30T02:51:53;3.50;99.90
4962;DHT22;2496;52.468;13.342;2024-01-30T02:54:20;3.40;99.90
4962;DHT22;2496;52.468;13.342;2024-01-30T02:56:48;3.50;99.90
4962;DHT22;2496;52.468;13.342;2024-01-30T02:59:15;3.40;99.90
4962;DHT22;2496;52.468;13.342;2024-01-30T03:01:43;3.40;99.90
4962;DHT22;2496;52.468;13.342;2024-01-30T03:04:10;3.40;99.90
4962;DHT22;2496;52.468;13.342;2024-01-30T03:06:38;3.40;99.90
4962;DHT22;2496;52.468;13.342;2024-01-30T03:09:05;3.40;99.90
4962;DHT22;2496;52.468;13.342;2024-01-30T03:11:32;3.40;99.90
4962;DHT22;2496;52.468;13.342;2024-01-30T03:14:00;3.40;99.90
4962;DHT22;2496;52.468;13.342;2024-01-30T03:16:27;3.30;99.90
4962;DHT22;2496;52.468;13.342;2024-01-30T03:18:54;3.30;99.90
4962;DHT22;2496;52.468;13.342;2024-01-30T03:21:21;3.30;99.90
4962;DHT22;2496;52.468;13.342;2024-01-30T03:23:48;3.30;99.90
4962;DHT22;2496;52.468;13.342;2024-01-30T03:26:15;3.30;99.90
4962;DHT22;2496;52.468;13.342;2024-01-30T03:28:42;3.30;99.90
4962;DHT22;2496;52.468;13.342;2024-01-30T03:31:12;3.30;99.90
4962;DHT22;2496;52.468;13.342;2024-01-30T03:33:39;3.30;99.90
4962;DHT22;2496;52.468;13.342;2024-01-30T03:36:07;3.20;99.90
4962;DHT22;2496;52.468;13.342;2024-01-30T03:38:34;3.20;99.90
4962;DHT22;2496;52.468;13.342;2024-01-30T03:41:01;3.20;99.90
4962;DHT22;2496;52.468;13.342;2024-01-30T03:43:28;3.20;99.90
4962;DHT22;2496;52.468;13.342;2024-01-30T03:45:55;3.20;99.90
4962;DHT22;2496;52.468;13.342;2024-01-30T03:48:23;3.20;99.90
4962;DHT22;2496;52.468;13.342;2024-01-30T03:50:51;3.20;99.90
4962;DHT22;2496;52.468;13.342;2024-01-30T03:53:18;3.20;99.90
4962;DHT22;2496;52.468;13.342;2024-01-30T03:55:45;3.10;99.90
4962;DHT22;2496;52.468;13.342;2024-01-30T03:58:12;3.10;99.90
4962;DHT22;2496;52.468;13.342;2024-01-30T04:00:39;3.10;99.90
4962;DHT22;2496;52.468;13.342;2024-01-30T04:03:06;3.10;99.90
4962;DHT22;2496;52.468;13.342;2024-01-30T04:05:35;3.10;99.90
4962;DHT22;2496;52.468;13.342;2024-01-30T04:08:02;3.10;99.90
4962;DHT22;2496;52.468;13.342;2024-01-30T04:10:29;3.10;99.90
4962;DHT22;2496;52.468;13.342;2024-01-30T04:12:56;3.10;99.90
4962;DHT22;2496;52.468;13.342;2024-01-30T04:15:23;3.10;99.90
4962;DHT22;2496;52.468;13.342;2024-01-30T04:17:50;3.10;99.90
4962;DHT22;2496;52.468;13.342;2024-01-30T04:20:17;3.10;99.90
4962;DHT22;2496;52.468;13.342;2024-01-30T04:22:46;3.10;99.90
4962;DHT22;2496;52.468;13.342;2024-01-30T04:25:13;3.10;99.90
4962;DHT22;2496;52.468;13.342;2024-01-30T04:27:40;3.10;99.90
4962;DHT22;2496;52.468;13.342;2024-01-30T04:30:08;3.10;99.90
4962;DHT22;2496;52.468;13.342;2024-01-30T04:32:35;3.10;99.90
4962;DHT22;2496;52.468;13.342;2024-01-30T04:35:03;3.10;99.90
4962;DHT22;2496;52.468;13.342;2024-01-30T04:37:30;3.10;99.90
4962;DHT22;2496;52.468;13.342;2024-01-30T04:39:59;3.10;99.90
4962;DHT22;2496;52.468;13.342;2024-01-30T04:42:25;3.10;99.90
4962;DHT22;2496;52.468;13.342;2024-01-30T04:44:52;3.10;99.90
4962;DHT22;2496;52.468;13.342;2024-01-30T04:47:19;3.10;99.90
4962;DHT22;2496;52.468;13.342;2024-01-30T04:49:46;3.10;99.90
4962;DHT22;2496;52.468;13.342;2024-01-30T04:52:13;3.10;99.90
4962;DHT22;2496;52.468;13.342;2024-01-30T04:54:44;3.10;99.90
4962;DHT22;2496;52.468;13.342;2024-01-30T04:57:12;3.10;99.90
4962;DHT22;2496;52.468;13.342;2024-01-30T04:59:39;3.10;99.90
4962;DHT22;2496;52.468;13.342;2024-01-30T05:02:06;3.10;99.90
4962;DHT22;2496;52.468;13.342;2024-01-30T05:04:33;3.10;99.90
4962;DHT22;2496;52.468;13.342;2024-01-30T05:07:00;3.10;99.90
4962;DHT22;2496;52.468;13.342;2024-01-30T05:09:27;3.10;99.90
4962;DHT22;2496;52.468;13.342;2024-01-30T05:11:55;3.10;99.90
4962;DHT22;2496;52.468;13.342;2024-01-30T05:14:23;3.10;99.90
4962;DHT22;2496;52.468;13.342;2024-01-30T05:16:50;3.10;99.90
4962;DHT22;2496;52.468;13.342;2024-01-30T05:19:17;3.10;99.90
4962;DHT22;2496;52.468;13.342;2024-01-30T05:21:44;3.00;99.90
4962;DHT22;2496;52.468;13.342;2024-01-30T05:24:11;3.00;99.90
4962;DHT22;2496;52.468;13.342;2024-01-30T05:26:38;3.00;99.90
4962;DHT22;2496;52.468;13.342;2024-01-30T05:29:06;3.00;99.90
4962;DHT22;2496;52.468;13.342;2024-01-30T05:31:34;3.00;99.90
4962;DHT22;2496;52.468;13.342;2024-01-30T05:34:01;3.00;99.90
4962;DHT22;2496;52.468;13.342;2024-01-30T05:36:28;3.00;99.90
4962;DHT22;2496;52.468;13.342;2024-01-30T05:38:56;3.00;99.90
4962;DHT22;2496;52.468;13.342;2024-01-30T05:41:23;3.00;99.90
4962;DHT22;2496;52.468;13.342;2024-01-30T05:43:50;3.00;99.90
4962;DHT22;2496;52.468;13.342;2024-01-30T05:46:17;3.00;99.90
4962;DHT22;2496;52.468;13.342;2024-01-30T05:48:45;3.00;99.90
4962;DHT22;2496;52.468;13.342;2024-01-30T05:51:12;3.00;99.90
4962;DHT22;2496;52.468;13.342;2024-01-30T05:53:39;3.00;99.90
4962;DHT22;2496;52.468;13.342;2024-01-30T05:56:06;2.90;99.90
4962;DHT22;2496;52.468;13.342;2024-01-30T05:58:33;2.90;99.90
4962;DHT22;2496;52.468;13.342;2024-01-30T06:01:00;3.00;99.90
4962;DHT22;2496;52.468;13.342;2024-01-30T06:03:27;3.00;99.90
4962;DHT22;2496;52.468;13.342;2024-01-30T06:05:55;3.00;99.90
4962;DHT22;2496;52.468;13.342;2024-01-30T06:08:22;3.00;99.90
4962;DHT22;2496;52.468;13.342;2024-01-30T06:10:49;3.00;99.90
4962;DHT22;2496;52.468;13.342;2024-01-30T06:13:16;3.00;99.90
4962;DHT22;2496;52.468;13.342;2024-01-30T06:15:43;3.00;99.90
4962;DHT22;2496;52.468;13.342;2024-01-30T06:18:10;3.00;99.90
4962;DHT22;2496;52.468;13.342;2024-01-30T06:20:37;3.00;99.90
4962;DHT22;2496;52.468;13.342;2024-01-30T06:23:06;3.10;99.90
4962;DHT22;2496;52.468;13.342;2024-01-30T06:25:32;3.10;99.90
4962;DHT22;2496;52.468;13.342;2024-01-30T06:27:59;3.10;99.90
4962;DHT22;2496;52.468;13.342;2024-01-30T06:30:26;3.10;99.90
4962;DHT22;2496;52.468;13.342;2024-01-30T06:32:53;3.10;99.90
4962;DHT22;2496;52.468;13.342;2024-01-30T06:35:20;3.10;99.90
4962;DHT22;2496;52.468;13.342;2024-01-30T06:37:47;3.10;99.90
4962;DHT22;2496;52.468;13.342;2024-01-30T06:40:16;3.10;99.90
4962;DHT22;2496;52.468;13.342;2024-01-30T06:42:43;3.20;99.90
4962;DHT22;2496;52.468;13.342;2024-01-30T06:45:13;3.20;99.90
4962;DHT22;2496;52.468;13.342;2024-01-30T06:47:41;3.20;99.90
4962;DHT22;2496;52.468;13.342;2024-01-30T06:50:08;3.20;99.90
4962;DHT22;2496;52.468;13.342;2024-01-30T06:52:35;3.20;99.90
4962;DHT22;2496;52.468;13.342;2024-01-30T06:55:02;3.20;99.90
4962;DHT22;2496;52.468;13.342;2024-01-30T06:57:31;3.20;99.90
4962;DHT22;2496;52.468;13.342;2024-01-30T06:59:58;3.20;99.90
4962;DHT22;2496;52.468;13.342;2024-01-30T07:02:25;3.20;99.90
4962;DHT22;2496;52.468;13.342;2024-01-30T07:04:52;3.20;99.90
4962;DHT22;2496;52.468;13.342;2024-01-30T07:07:19;3.20;99.90
4962;DHT22;2496;52.468;13.342;2024-01-30T07:09:46;3.30;99.90
4962;DHT22;2496;52.468;13.342;2024-01-30T07:12:15;3.30;99.90
4962;DHT22;2496;52.468;13.342;2024-01-30T07:14:43;3.30;99.90
4962;DHT22;2496;52.468;13.342;2024-01-30T07:17:10;3.30;99.90
4962;DHT22;2496;52.468;13.342;2024-01-30T07:19:37;3.30;99.90
4962;DHT22;2496;52.468;13.342;2024-01-30T07:22:04;3.30;99.90
4962;DHT22;2496;52.468;13.342;2024-01-30T07:24:31;3.30;99.90
4962;DHT22;2496;52.468;13.342;2024-01-30T07:26:58;3.40;99.90
4962;DHT22;2496;52.468;13.342;2024-01-30T07:29:25;3.40;99.90
4962;DHT22;2496;52.468;13.342;2024-01-30T07:31:54;3.40;99.90
4962;DHT22;2496;52.468;13.342;2024-01-30T07:34:21;3.50;99.90
4962;DHT22;2496;52.468;13.342;2024-01-30T07:36:47;3.50;99.90
4962;DHT22;2496;52.468;13.342;2024-01-30T07:39:15;3.50;99.90
4962;DHT22;2496;52.468;13.342;2024-01-30T07:41:50;3.50;99.90
4962;DHT22;2496;52.468;13.342;2024-01-30T07:44:20;3.60;99.90
4962;DHT22;2496;52.468;13.342;2024-01-30T07:46:47;3.60;99.90
4962;DHT22;2496;52.468;13.342;2024-01-30T07:49:16;3.60;99.90
4962;DHT22;2496;52.468;13.342;2024-01-30T07:51:43;3.60;99.90
4962;DHT22;2496;52.468;13.342;2024-01-30T07:54:10;3.60;99.90
4962;DHT22;2496;52.468;13.342;2024-01-30T07:56:37;3.60;99.90
4962;DHT22;2496;52.468;13.342;2024-01-30T07:59:04;3.70;99.90
4962;DHT22;2496;52.468;13.342;2024-01-30T08:01:31;3.70;99.90
4962;DHT22;2496;52.468;13.342;2024-01-30T08:03:58;3.80;99.90
4962;DHT22;2496;52.468;13.342;2024-01-30T08:06:27;3.80;99.90
4962;DHT22;2496;52.468;13.342;2024-01-30T08:08:54;3.80;99.90
4962;DHT22;2496;52.468;13.342;2024-01-30T08:11:21;3.80;99.90
4962;DHT22;2496;52.468;13.342;2024-01-30T08:13:51;3.90;99.90
4962;DHT22;2496;52.468;13.342;2024-01-30T08:16:18;3.90;99.90
4962;DHT22;2496;52.468;13.342;2024-01-30T08:18:45;3.90;99.90
4962;DHT22;2496;52.468;13.342;2024-01-30T08:21:12;4.00;99.90
4962;DHT22;2496;52.468;13.342;2024-01-30T08:23:41;4.00;99.90
4962;DHT22;2496;52.468;13.342;2024-01-30T08:26:08;4.00;99.90
4962;DHT22;2496;52.468;13.342;2024-01-30T08:28:35;4.00;99.90
4962;DHT22;2496;52.468;13.342;2024-01-30T08:31:02;4.10;99.90
4962;DHT22;2496;52.468;13.342;2024-01-30T08:33:29;4.20;99.90
4962;DHT22;2496;52.468;13.342;2024-01-30T08:35:56;4.20;99.90
4962;DHT22;2496;52.468;13.342;2024-01-30T08:38:23;4.30;99.90
4962;DHT22;2496;52.468;13.342;2024-01-30T08:40:51;4.40;99.90
4962;DHT22;2496;52.468;13.342;2024-01-30T08:43:18;4.40;99.90
4962;DHT22;2496;52.468;13.342;2024-01-30T08:45:45;4.50;99.90
4962;DHT22;2496;52.468;13.342;2024-01-30T08:48:12;4.50;99.90
4962;DHT22;2496;52.468;13.342;2024-01-30T08:50:39;4.60;99.90
4962;DHT22;2496;52.468;13.342;2024-01-30T08:53:06;4.60;99.90
4962;DHT22;2496;52.468;13.342;2024-01-30T08:55:33;4.70;99.90
4962;DHT22;2496;52.468;13.342;2024-01-30T08:58:02;4.80;99.90
4962;DHT22;2496;52.468;13.342;2024-01-30T09:00:30;4.80;99.90
4962;DHT22;2496;52.468;13.342;2024-01-30T09:02:57;4.90;99.90
4962;DHT22;2496;52.468;13.342;2024-01-30T09:05:24;4.90;99.90
4962;DHT22;2496;52.468;13.342;2024-01-30T09:07:51;5.00;99.90
4962;DHT22;2496;52.468;13.342;2024-01-30T09:10:18;5.10;99.90
4962;DHT22;2496;52.468;13.342;2024-01-30T09:12:45;5.10;99.90
4962;DHT22;2496;52.468;13.342;2024-01-30T09:15:13;5.10;99.90
4962;DHT22;2496;52.468;13.342;2024-01-30T09:17:40;5.20;99.90
4962;DHT22;2496;52.468;13.342;2024-01-30T09:20:08;5.20;99.90
4962;DHT22;2496;52.468;13.342;2024-01-30T09:22:38;5.20;99.90
4962;DHT22;2496;52.468;13.342;2024-01-30T09:25:06;5.20;99.90
4962;DHT22;2496;52.468;13.342;2024-01-30T09:27:33;5.20;99.90
4962;DHT22;2496;52.468;13.342;2024-01-30T09:30:00;5.30;99.90
4962;DHT22;2496;52.468;13.342;2024-01-30T09:32:28;5.30;99.90
4962;DHT22;2496;52.468;13.342;2024-01-30T09:34:55;5.30;99.90
4962;DHT22;2496;52.468;13.342;2024-01-30T09:37:22;5.40;99.90
4962;DHT22;2496;52.468;13.342;2024-01-30T09:39:49;5.40;99.90
4962;DHT22;2496;52.468;13.342;2024-01-30T09:42:24;5.40;99.90
4962;DHT22;2496;52.468;13.342;2024-01-30T09:44:53;5.40;99.90
4962;DHT22;2496;52.468;13.342;2024-01-30T09:47:21;5.50;99.90
4962;DHT22;2496;52.468;13.342;2024-01-30T09:49:50;5.50;99.90
4962;DHT22;2496;52.468;13.342;2024-01-30T09:52:18;5.60;99.90
4962;DHT22;2496;52.468;13.342;2024-01-30T09:54:45;5.60;99.90
4962;DHT22;2496;52.468;13.342;2024-01-30T09:57:12;5.70;99.90
4962;DHT22;2496;52.468;13.342;2024-01-30T09:59:41;5.70;99.90
4962;DHT22;2496;52.468;13.342;2024-01-30T10:02:08;5.80;99.90
4962;DHT22;2496;52.468;13.342;2024-01-30T10:04:35;5.90;99.90
4962;DHT22;2496;52.468;13.342;2024-01-30T10:07:03;6.00;99.90
4962;DHT22;2496;52.468;13.342;2024-01-30T10:09:32;6.00;99.90
4962;DHT22;2496;52.468;13.342;2024-01-30T10:12:00;6.10;99.90
4962;DHT22;2496;52.468;13.342;2024-01-30T10:14:29;6.20;99.90
4962;DHT22;2496;52.468;13.342;2024-01-30T10:16:57;6.20;99.90
4962;DHT22;2496;52.468;13.342;2024-01-30T10:19:24;6.30;99.90
4962;DHT22;2496;52.468;13.342;2024-01-30T10:21:55;6.30;99.90
4962;DHT22;2496;52.468;13.342;2024-01-30T10:24:26;6.30;99.90
4962;DHT22;2496;52.468;13.342;2024-01-30T10:26:55;6.40;99.90
4962;DHT22;2496;52.468;13.342;2024-01-30T10:29:22;6.40;99.90
4962;DHT22;2496;52.468;13.342;2024-01-30T10:31:58;6.40;99.90
4962;DHT22;2496;52.468;13.342;2024-01-30T10:34:25;6.50;99.90
4962;DHT22;2496;52.468;13.342;2024-01-30T10:37:05;6.50;99.90
4962;DHT22;2496;52.468;13.342;2024-01-30T10:39:39;6.50;99.90
4962;DHT22;2496;52.468;13.342;2024-01-30T10:42:08;6.50;99.90
4962;DHT22;2496;52.468;13.342;2024-01-30T10:44:48;6.50;99.90
4962;DHT22;2496;52.468;13.342;2024-01-30T10:47:25;6.60;99.90
4962;DHT22;2496;52.468;13.342;2024-01-30T10:49:54;6.60;99.90
4962;DHT22;2496;52.468;13.342;2024-01-30T10:52:23;6.60;99.90
4962;DHT22;2496;52.468;13.342;2024-01-30T10:54:53;6.60;99.90
4962;DHT22;2496;52.468;13.342;2024-01-30T10:57:23;6.60;99.90
4962;DHT22;2496;52.468;13.342;2024-01-30T10:59:52;6.70;99.90
4962;DHT22;2496;52.468;13.342;2024-01-30T11:02:20;6.70;99.90
4962;DHT22;2496;52.468;13.342;2024-01-30T11:04:47;6.70;99.90
4962;DHT22;2496;52.468;13.342;2024-01-30T11:07:15;6.70;99.90
4962;DHT22;2496;52.468;13.342;2024-01-30T11:09:48;6.80;99.90
4962;DHT22;2496;52.468;13.342;2024-01-30T11:12:22;6.80;99.90
4962;DHT22;2496;52.468;13.342;2024-01-30T11:14:50;6.80;99.90
4962;DHT22;2496;52.468;13.342;2024-01-30T11:17:17;6.80;99.90
4962;DHT22;2496;52.468;13.342;2024-01-30T11:19:44;6.80;99.90
4962;DHT22;2496;52.468;13.342;2024-01-30T11:22:12;6.80;99.90
4962;DHT22;2496;52.468;13.342;2024-01-30T11:24:40;6.90;99.90
4962;DHT22;2496;52.468;13.342;2024-01-30T11:27:08;6.90;99.90
4962;DHT22;2496;52.468;13.342;2024-01-30T11:29:37;6.90;99.90
4962;DHT22;2496;52.468;13.342;2024-01-30T11:32:05;6.90;99.90
4962;DHT22;2496;52.468;13.342;2024-01-30T11:34:33;6.90;99.90
4962;DHT22;2496;52.468;13.342;2024-01-30T11:37:06;7.00;99.90
4962;DHT22;2496;52.468;13.342;2024-01-30T11:39:36;6.90;99.90
4962;DHT22;2496;52.468;13.342;2024-01-30T11:42:06;7.00;99.90
4962;DHT22;2496;52.468;13.342;2024-01-30T11:44:34;7.00;99.90
4962;DHT22;2496;52.468;13.342;2024-01-30T11:47:03;7.10;99.90
4962;DHT22;2496;52.468;13.342;2024-01-30T11:49:30;7.10;99.90
4962;DHT22;2496;52.468;13.342;2024-01-30T11:51:57;7.10;99.90
4962;DHT22;2496;52.468;13.342;2024-01-30T11:54:24;7.20;99.90
4962;DHT22;2496;52.468;13.342;2024-01-30T11:56:51;7.20;99.90
4962;DHT22;2496;52.468;13.342;2024-01-30T11:59:18;7.20;99.90
4962;DHT22;2496;52.468;13.342;2024-01-30T12:01:45;7.30;99.90
4962;DHT22;2496;52.468;13.342;2024-01-30T12:04:15;7.30;99.90
4962;DHT22;2496;52.468;13.342;2024-01-30T12:06:42;7.40;99.90
4962;DHT22;2496;52.468;13.342;2024-01-30T12:09:09;7.40;99.90
4962;DHT22;2496;52.468;13.342;2024-01-30T12:11:45;7.50;99.90
4962;DHT22;2496;52.468;13.342;2024-01-30T12:14:12;7.50;99.90
4962;DHT22;2496;52.468;13.342;2024-01-30T12:16:40;7.60;99.90
4962;DHT22;2496;52.468;13.342;2024-01-30T12:19:08;7.60;99.90
4962;DHT22;2496;52.468;13.342;2024-01-30T12:21:38;7.60;99.90
4962;DHT22;2496;52.468;13.342;2024-01-30T12:24:05;7.60;99.90
4962;DHT22;2496;52.468;13.342;2024-01-30T12:26:33;7.60;99.90
4962;DHT22;2496;52.468;13.342;2024-01-30T12:29:00;7.60;99.90
4962;DHT22;2496;52.468;13.342;2024-01-30T12:31:27;7.60;99.90
4962;DHT22;2496;52.468;13.342;2024-01-30T12:33:54;7.60;99.90
4962;DHT22;2496;52.468;13.342;2024-01-30T12:36:22;7.60;99.90
4962;DHT22;2496;52.468;13.342;2024-01-30T12:38:51;7.60;99.90
4962;DHT22;2496;52.468;13.342;2024-01-30T12:41:19;7.70;99.90
4962;DHT22;2496;52.468;13.342;2024-01-30T12:43:46;7.70;99.90
4962;DHT22;2496;52.468;13.342;2024-01-30T12:46:17;7.70;99.90
4962;DHT22;2496;52.468;13.342;2024-01-30T12:48:44;7.70;99.90
4962;DHT22;2496;52.468;13.342;2024-01-30T12:51:11;7.70;99.90
4962;DHT22;2496;52.468;13.342;2024-01-30T12:53:38;7.70;99.90
4962;DHT22;2496;52.468;13.342;2024-01-30T12:56:06;7.80;99.90
4962;DHT22;2496;52.468;13.342;2024-01-30T12:58:33;7.80;99.90
4962;DHT22;2496;52.468;13.342;2024-01-30T13:01:00;7.80;99.90
4962;DHT22;2496;52.468;13.342;2024-01-30T13:03:28;7.80;99.90
4962;DHT22;2496;52.468;13.342;2024-01-30T13:05:55;7.80;99.90
4962;DHT22;2496;52.468;13.342;2024-01-30T13:08:22;7.80;99.90
4962;DHT22;2496;52.468;13.342;2024-01-30T13:10:49;7.80;99.90
4962;DHT22;2496;52.468;13.342;2024-01-30T13:13:17;7.90;99.90
4962;DHT22;2496;52.468;13.342;2024-01-30T13:15:44;7.90;99.90
4962;DHT22;2496;52.468;13.342;2024-01-30T13:18:11;7.80;99.90
4962;DHT22;2496;52.468;13.342;2024-01-30T13:20:38;7.80;99.90
4962;DHT22;2496;52.468;13.342;2024-01-30T13:23:05;7.80;99.90
4962;DHT22;2496;52.468;13.342;2024-01-30T13:25:32;7.80;99.90
4962;DHT22;2496;52.468;13.342;2024-01-30T13:27:59;7.90;99.90
4962;DHT22;2496;52.468;13.342;2024-01-30T13:30:28;7.90;99.90
4962;DHT22;2496;52.468;13.342;2024-01-30T13:32:55;7.90;99.90
4962;DHT22;2496;52.468;13.342;2024-01-30T13:35:22;7.90;99.90
4962;DHT22;2496;52.468;13.342;2024-01-30T13:37:49;7.90;99.90
4962;DHT22;2496;52.468;13.342;2024-01-30T13:40:16;7.90;99.90
4962;DHT22;2496;52.468;13.342;2024-01-30T13:42:43;7.90;99.90
4962;DHT22;2496;52.468;13.342;2024-01-30T13:45:10;7.90;99.90
4962;DHT22;2496;52.468;13.342;2024-01-30T13:47:38;7.90;99.90
4962;DHT22;2496;52.468;13.342;2024-01-30T13:50:05;7.90;99.90
4962;DHT22;2496;52.468;13.342;2024-01-30T13:52:33;7.90;99.90
4962;DHT22;2496;52.468;13.342;2024-01-30T13:55:00;7.90;99.90
4962;DHT22;2496;52.468;13.342;2024-01-30T13:57:27;7.90;99.90
4962;DHT22;2496;52.468;13.342;2024-01-30T13:59:54;8.00;99.90
4962;DHT22;2496;52.468;13.342;2024-01-30T14:02:22;8.00;99.90
4962;DHT22;2496;52.468;13.342;2024-01-30T14:04:51;8.00;99.90
4962;DHT22;2496;52.468;13.342;2024-01-30T14:07:18;8.00;99.90
4962;DHT22;2496;52.468;13.342;2024-01-30T14:09:45;8.00;99.90
4962;DHT22;2496;52.468;13.342;2024-01-30T14:12:12;8.00;99.90
4962;DHT22;2496;52.468;13.342;2024-01-30T14:14:39;8.00;99.90
4962;DHT22;2496;52.468;13.342;2024-01-30T14:17:06;8.00;99.90
4962;DHT22;2496;52.468;13.342;2024-01-30T14:19:34;8.00;99.90
4962;DHT22;2496;52.468;13.342;2024-01-30T14:22:03;8.00;99.90
4962;DHT22;2496;52.468;13.342;2024-01-30T14:24:30;8.00;99.90
4962;DHT22;2496;52.468;13.342;2024-01-30T14:26:57;8.00;99.90
4962;DHT22;2496;52.468;13.342;2024-01-30T14:29:25;8.00;99.90
4962;DHT22;2496;52.468;13.342;2024-01-30T14:31:52;8.00;99.90
4962;DHT22;2496;52.468;13.342;2024-01-30T14:34:20;8.10;99.90
4962;DHT22;2496;52.468;13.342;2024-01-30T14:36:47;8.10;99.90
4962;DHT22;2496;52.468;13.342;2024-01-30T14:39:15;8.00;99.90
4962;DHT22;2496;52.468;13.342;2024-01-30T14:41:43;8.00;99.90
4962;DHT22;2496;52.468;13.342;2024-01-30T14:44:10;8.00;99.90
4962;DHT22;2496;52.468;13.342;2024-01-30T14:46:37;8.00;99.90
4962;DHT22;2496;52.468;13.342;2024-01-30T14:49:04;8.00;99.90
4962;DHT22;2496;52.468;13.342;2024-01-30T14:51:33;8.00;99.90
4962;DHT22;2496;52.468;13.342;2024-01-30T14:54:01;8.00;99.90
4962;DHT22;2496;52.468;13.342;2024-01-30T14:56:29;8.00;99.90
4962;DHT22;2496;52.468;13.342;2024-01-30T14:58:56;8.00;99.90
4962;DHT22;2496;52.468;13.342;2024-01-30T15:01:24;8.00;99.90
4962;DHT22;2496;52.468;13.342;2024-01-30T15:03:49;8.00;99.90
4962;DHT22;2496;52.468;13.342;2024-01-30T15:06:17;8.00;99.90
4962;DHT22;2496;52.468;13.342;2024-01-30T15:08:45;7.90;99.90
4962;DHT22;2496;52.468;13.342;2024-01-30T15:11:11;7.90;99.90
4962;DHT22;2496;52.468;13.342;2024-01-30T15:13:40;7.90;99.90
4962;DHT22;2496;52.468;13.342;2024-01-30T15:16:07;7.90;99.90
4962;DHT22;2496;52.468;13.342;2024-01-30T15:18:34;7.90;99.90
4962;DHT22;2496;52.468;13.342;2024-01-30T15:21:02;7.80;99.90
4962;DHT22;2496;52.468;13.342;2024-01-30T15:23:30;7.80;99.90
4962;DHT22;2496;52.468;13.342;2024-01-30T15:25:57;7.80;99.90
4962;DHT22;2496;52.468;13.342;2024-01-30T15:28:34;7.80;99.90
4962;DHT22;2496;52.468;13.342;2024-01-30T15:31:05;7.80;99.90
4962;DHT22;2496;52.468;13.342;2024-01-30T15:33:32;7.80;99.90
4962;DHT22;2496;52.468;13.342;2024-01-30T15:36:00;7.70;99.90
4962;DHT22;2496;52.468;13.342;2024-01-30T15:38:27;7.70;99.90
4962;DHT22;2496;52.468;13.342;2024-01-30T15:40:57;7.70;99.90
4962;DHT22;2496;52.468;13.342;2024-01-30T15:43:24;7.70;99.90
4962;DHT22;2496;52.468;13.342;2024-01-30T15:45:51;7.60;99.90
4962;DHT22;2496;52.468;13.342;2024-01-30T15:48:20;7.60;99.90
4962;DHT22;2496;52.468;13.342;2024-01-30T15:50:47;7.60;99.90
4962;DHT22;2496;52.468;13.342;2024-01-30T15:53:14;7.60;99.90
4962;DHT22;2496;52.468;13.342;2024-01-30T15:55:41;7.60;99.90
4962;DHT22;2496;52.468;13.342;2024-01-30T15:58:08;7.60;99.90
4962;DHT22;2496;52.468;13.342;2024-01-30T16:00:35;7.50;99.90
4962;DHT22;2496;52.468;13.342;2024-01-30T16:03:02;7.50;99.90
4962;DHT22;2496;52.468;13.342;2024-01-30T16:05:30;7.50;99.90